Terminal Aerodrome Forecast
Issued by NWS

Current Version | Previous Version | Text Only | Print | Product List | Glossary Off
Versions: 1 2 3 4 5 6 7 8 9 10 11 12 13 14 15 16 17 18 19 20 21 22 23 24 25 26 27 28 29 30 31 32

000
FTUS41 KILN 211958 AAA
TAFLUK
TAF AMD
KLUK 211958Z 2120/2218 22011KT P6SM VCTS BKN018CB OVC025
      TEMPO 2120/2121 3SM -TSRA BR OVC018CB
     FM212100 25010KT P6SM VCSH BKN018 BKN028
     FM212200 25009KT P6SM SCT035
     FM220100 29006KT P6SM SCT035
     FM221600 29007KT P6SM FEW040 SCT250=

USA.gov is the U.S. government's official web portal to all federal, state and local government web resources and services.